Time;durP1;ratioP1;P1;durP2;ratioP2;P2;SDS_P1;SDS_P2;PMS_P1;PMS_P2;Temp;Humidity;BMP_temperature;BMP_pressure;BME280_temperature;BME280_humidity;BME280_pressure;Samples;Min_cycle;Max_cycle;Signal;HPM_P1;HPM_P2
2021/07/17 00:00:44;;;;;;;29.38;8.20;;;;;;;16.25;77.69;102780.44;5052426;28;20025;-61
2021/07/17 00:03:09;;;;;;;28.20;7.93;;;;;;;16.28;77.66;102775.00;5052287;28;20079;-61
2021/07/17 00:05:35;;;;;;;25.73;7.63;;;;;;;16.35;77.68;102779.16;5053357;28;20037;-62
2021/07/17 00:08:00;;;;;;;23.48;7.75;;;;;;;16.39;77.20;102771.91;5053338;28;20111;-62
2021/07/17 00:10:35;;;;;;;19.40;7.40;;;;;;;16.43;77.08;102773.50;5065600;28;20044;-62
2021/07/17 00:13:01;;;;;;;28.33;7.90;;;;;;;16.46;76.98;102768.06;5072207;28;20024;-62
2021/07/17 00:15:27;;;;;;;18.85;7.35;;;;;;;16.47;77.07;102767.13;5069630;28;20045;-62
2021/07/17 00:17:52;;;;;;;28.08;7.72;;;;;;;16.49;76.93;102761.72;5073139;28;20420;-62
2021/07/17 00:20:18;;;;;;;23.35;7.32;;;;;;;16.53;77.24;102766.91;5074966;28;20115;-62
2021/07/17 00:22:43;;;;;;;34.60;7.53;;;;;;;16.55;76.84;102761.50;5075209;28;20064;-62
2021/07/17 00:25:15;;;;;;;24.67;7.03;;;;;;;16.58;76.74;102763.16;5073010;28;20047;-61
2021/07/17 00:27:40;;;;;;;;;;;;;;;16.62;76.32;102759.44;5075255;28;20365;-61
2021/07/17 00:30:06;;;;;;;25.43;7.70;;;;;;;16.57;76.86;102761.41;5072776;28;20018;-63
2021/07/17 00:32:32;;;;;;;21.80;7.75;;;;;;;16.55;76.54;102766.84;5074750;28;20271;-61
2021/07/17 00:34:57;;;;;;;18.33;7.25;;;;;;;16.64;76.81;102761.13;5075010;28;20035;-62
2021/07/17 00:37:23;;;;;;;23.98;7.95;;;;;;;16.64;76.65;102768.28;5072860;28;20115;-62
2021/07/17 00:39:48;;;;;;;28.10;8.07;;;;;;;16.61;76.88;102769.28;5072092;28;20029;-62
2021/07/17 00:42:14;;;;;;;17.33;7.05;;;;;;;16.66;76.47;102766.41;5074578;28;20028;-62
2021/07/17 00:44:39;;;;;;;27.73;7.78;;;;;;;16.64;76.49;102762.94;5074598;28;20054;-61
2021/07/17 00:47:06;;;;;;;23.45;7.60;;;;;;;16.68;76.46;102765.41;5072961;28;20078;-61
2021/07/17 00:49:32;;;;;;;23.25;8.20;;;;;;;16.71;76.45;102769.75;5073165;28;20025;-61
2021/07/17 00:51:57;;;;;;;27.95;8.43;;;;;;;16.71;76.04;102762.63;5074352;28;20074;-61
2021/07/17 00:54:25;;;;;;;25.10;8.50;;;;;;;16.69;76.11;102768.97;5074470;28;20468;-62
2021/07/17 00:56:52;;;;;;;22.33;7.60;;;;;;;16.71;76.15;102767.09;5073866;28;20025;-64
2021/07/17 00:59:21;;;;;;;28.45;7.82;;;;;;;16.70;76.33;102763.56;5071741;28;20131;-63
2021/07/17 01:01:50;;;;;;;21.38;8.13;;;;;;;16.70;75.62;102766.22;5055744;28;20033;-63
2021/07/17 01:04:16;;;;;;;22.02;7.07;;;;;;;16.74;75.48;102774.13;5054420;28;20029;-63
2021/07/17 01:06:42;;;;;;;23.92;7.07;;;;;;;16.68;75.93;102760.06;5053959;28;20027;-64
2021/07/17 01:09:08;;;;;;;29.25;8.23;;;;;;;16.67;76.25;102770.81;5056194;28;20071;-64
2021/07/17 01:11:33;;;;;;;21.25;7.07;;;;;;;16.61;76.37;102769.28;5054183;28;20049;-61
2021/07/17 01:13:58;;;;;;;23.65;7.60;;;;;;;16.64;76.40;102769.13;5015102;28;1119665;-63
2021/07/17 01:16:24;;;;;;;29.98;7.85;;;;;;;16.66;76.13;102772.63;5055183;28;20033;-61
2021/07/17 01:18:50;;;;;;;24.55;7.57;;;;;;;16.71;75.92;102761.72;5056239;28;20075;-62
2021/07/17 01:21:17;;;;;;;28.80;9.40;;;;;;;16.63;75.88;102772.75;5068906;28;20032;-61
2021/07/17 01:23:42;;;;;;;20.88;7.35;;;;;;;16.57;76.68;102762.28;5075109;28;20104;-60
2021/07/17 01:26:08;;;;;;;26.48;7.85;;;;;;;16.51;76.14;102762.56;5075145;28;20060;-62
2021/07/17 01:28:33;;;;;;;24.98;8.07;;;;;;;16.41;77.06;102759.34;5072708;28;20039;-62
2021/07/17 01:30:58;;;;;;;23.75;8.30;;;;;;;16.35;77.34;102757.78;5061718;28;20112;-61
2021/07/17 01:33:24;;;;;;;21.58;8.32;;;;;;;16.26;77.18;102759.94;5055017;28;20041;-62
2021/07/17 01:35:52;;;;;;;23.90;8.43;;;;;;;16.17;78.06;102753.16;5055075;28;20048;-62
2021/07/17 01:38:17;;;;;;;27.42;8.43;;;;;;;16.10;78.28;102756.97;5066681;28;20023;-61
2021/07/17 01:40:46;;;;;;;19.17;7.45;;;;;;;16.02;78.44;102763.50;5069455;28;20029;-63
2021/07/17 01:43:12;;;;;;;26.83;8.82;;;;;;;15.98;78.91;102763.66;5070360;28;20020;-63
2021/07/17 01:45:40;;;;;;;24.23;7.63;;;;;;;15.89;79.03;102756.84;5074615;28;20086;-64
2021/07/17 01:48:07;;;;;;;20.88;8.20;;;;;;;15.83;79.62;102755.28;5074796;28;20027;-63
2021/07/17 01:50:33;;;;;;;26.73;8.30;;;;;;;15.80;79.61;102757.16;5072574;28;20024;-63
2021/07/17 01:53:01;;;;;;;22.73;8.70;;;;;;;15.75;79.66;102759.13;5061621;28;20029;-61
2021/07/17 01:55:27;;;;;;;25.77;8.80;;;;;;;15.71;80.25;102758.34;5054762;28;20029;-63
2021/07/17 01:57:52;;;;;;;26.90;9.15;;;;;;;15.65;80.13;102764.78;5055303;28;20024;-63
2021/07/17 02:00:19;;;;;;;26.40;8.48;;;;;;;15.64;80.27;102762.16;5054545;28;20037;-63
2021/07/17 02:02:46;;;;;;;31.08;9.52;;;;;;;15.62;80.70;102756.00;5055574;28;20469;-63
2021/07/17 02:05:12;;;;;;;25.15;8.77;;;;;;;15.62;80.97;102751.53;5055422;28;20058;-63
2021/07/17 02:07:37;;;;;;;24.20;8.30;;;;;;;15.60;80.75;102745.41;5054469;28;20021;-63
2021/07/17 02:10:09;;;;;;;32.35;8.77;;;;;;;15.60;81.20;102747.19;5054254;28;20082;-63
2021/07/17 02:12:34;;;;;;;;;;;;;;;15.58;81.33;102741.91;5054690;28;20026;-64
2021/07/17 02:14:59;;;;;;;21.03;7.77;;;;;;;15.56;81.69;102744.63;5055814;28;19923;-62
2021/07/17 02:17:25;;;;;;;23.50;8.18;;;;;;;15.55;81.78;102742.03;5054291;28;20275;-64
2021/07/17 02:19:50;;;;;;;23.88;8.05;;;;;;;15.52;81.80;102748.31;5053899;28;20028;-64
2021/07/17 02:22:15;;;;;;;25.73;8.13;;;;;;;15.49;82.11;102751.09;5054108;28;20035;-63
2021/07/17 02:24:41;;;;;;;29.52;8.88;;;;;;;15.47;82.20;102754.75;5055044;28;20538;-64
2021/07/17 02:27:06;;;;;;;29.00;8.63;;;;;;;15.44;82.70;102763.75;5055016;28;20037;-63
2021/07/17 02:29:31;;;;;;;27.38;8.43;;;;;;;15.43;82.40;102750.44;5066241;28;20032;-64
2021/07/17 02:31:57;;;;;;;23.25;8.18;;;;;;;15.42;82.94;102743.34;5073646;28;20078;-63
2021/07/17 02:34:22;;;;;;;27.48;8.90;;;;;;;15.42;82.98;102756.72;5072322;28;20017;-63
2021/07/17 02:36:47;;;;;;;24.63;8.20;;;;;;;15.38;83.04;102756.81;5072100;28;20021;-63
2021/07/17 02:39:14;;;;;;;23.73;7.65;;;;;;;15.37;82.98;102755.06;5072728;28;20448;-64
2021/07/17 02:41:39;;;;;;;25.40;8.10;;;;;;;15.34;83.02;102748.97;5073838;28;20031;-64
2021/07/17 02:44:05;;;;;;;23.38;8.65;;;;;;;15.31;83.12;102743.75;5073552;28;20384;-64
2021/07/17 02:46:31;;;;;;;34.65;8.15;;;;;;;15.29;83.15;102753.59;5070058;28;20032;-63
2021/07/17 02:48:56;;;;;;;32.25;9.43;;;;;;;15.22;83.29;102751.13;5073423;28;20154;-63
2021/07/17 02:51:22;;;;;;;30.80;7.82;;;;;;;15.19;83.63;102755.69;5073434;28;20031;-62
2021/07/17 02:53:47;;;;;;;34.13;8.82;;;;;;;15.18;83.60;102751.28;5073501;28;20032;-64
2021/07/17 02:56:12;;;;;;;20.92;7.88;;;;;;;15.11;83.53;102757.75;5071581;28;20112;-65
2021/07/17 02:58:37;;;;;;;26.50;8.23;;;;;;;15.05;83.97;102754.38;5071553;28;20026;-64
2021/07/17 03:01:03;;;;;;;19.95;8.32;;;;;;;15.05;84.44;102756.16;5072905;28;20029;-64
2021/07/17 03:03:28;;;;;;;28.75;8.13;;;;;;;15.04;83.71;102757.09;5073338;28;20020;-64
2021/07/17 03:05:53;;;;;;;24.88;7.60;;;;;;;15.00;83.99;102753.66;5073140;28;20032;-65
2021/07/17 03:08:23;;;;;;;29.25;8.40;;;;;;;15.01;84.29;102759.84;5069761;28;20055;-65
2021/07/17 03:10:52;;;;;;;30.35;8.75;;;;;;;14.99;84.49;102754.56;5073108;28;20021;-64
2021/07/17 03:13:18;;;;;;;28.52;9.43;;;;;;;14.94;83.83;102755.66;5073295;28;20039;-64
2021/07/17 03:15:46;;;;;;;23.85;8.48;;;;;;;14.85;84.15;102760.34;5072507;28;20045;-64
2021/07/17 03:18:11;;;;;;;23.90;7.72;;;;;;;14.83;83.87;102750.66;5069484;28;20388;-65
2021/07/17 03:20:37;;;;;;;24.05;8.45;;;;;;;14.77;83.97;102758.84;5054344;28;20032;-62
2021/07/17 03:23:04;;;;;;;27.40;8.55;;;;;;;14.73;84.61;102750.06;5073190;28;20028;-61
2021/07/17 03:25:29;;;;;;;31.13;8.82;;;;;;;14.70;84.65;102755.50;5073202;28;20021;-61
2021/07/17 03:27:55;;;;;;;31.10;8.60;;;;;;;14.70;84.94;102756.38;5069526;28;20048;-62
2021/07/17 03:30:20;;;;;;;25.80;9.00;;;;;;;14.67;84.97;102756.47;5072690;28;20157;-61
2021/07/17 03:32:45;;;;;;;31.85;8.40;;;;;;;14.66;85.30;102756.53;5072855;28;20032;-61
2021/07/17 03:35:11;;;;;;;32.63;9.38;;;;;;;14.63;85.40;102752.13;5072685;28;20035;-61
2021/07/17 03:37:36;;;;;;;31.20;9.43;;;;;;;14.64;85.83;102753.91;5071052;28;20036;-61
2021/07/17 03:40:04;;;;;;;32.25;8.93;;;;;;;14.63;85.71;102757.47;5070781;28;20119;-62
2021/07/17 03:42:29;;;;;;;36.78;10.35;;;;;;;14.65;85.99;102749.44;5072472;28;20025;-63
2021/07/17 03:44:54;;;;;;;30.40;8.98;;;;;;;14.66;86.09;102757.38;5072824;28;20026;-64
2021/07/17 03:47:20;;;;;;;29.02;9.25;;;;;;;14.71;85.81;102757.25;5070525;28;20032;-64
2021/07/17 03:49:45;;;;;;;35.03;9.25;;;;;;;14.71;86.06;102768.78;5071052;28;20387;-64
2021/07/17 03:52:11;;;;;;;34.85;8.52;;;;;;;14.72;86.38;102759.00;5072348;28;20112;-63
2021/07/17 03:54:36;;;;;;;26.23;8.80;;;;;;;14.75;86.24;102766.91;5072204;28;20051;-64
2021/07/17 03:57:02;;;;;;;31.30;8.73;;;;;;;14.77;86.12;102770.41;5072031;28;20025;-63
2021/07/17 03:59:27;;;;;;;24.95;8.02;;;;;;;14.83;86.11;102762.19;5069012;28;20063;-62
2021/07/17 04:01:52;;;;;;;31.92;8.65;;;;;;;14.85;86.05;102770.16;5072476;28;20048;-62
2021/07/17 04:04:18;;;;;;;34.13;9.40;;;;;;;14.86;86.23;102769.22;5072500;28;20054;-63
2021/07/17 04:06:44;;;;;;;24.38;7.60;;;;;;;14.88;85.84;102757.56;5072322;28;20032;-64
2021/07/17 04:09:09;;;;;;;33.65;9.35;;;;;;;14.88;85.87;102768.25;5070518;28;20024;-64
2021/07/17 04:11:35;;;;;;;28.05;8.45;;;;;;;14.93;86.48;102767.25;5070404;28;20111;-64
2021/07/17 04:14:00;;;;;;;28.17;8.30;;;;;;;14.97;86.54;102774.22;5072276;28;20457;-64
2021/07/17 04:16:26;;;;;;;28.67;9.02;;;;;;;15.03;86.56;102774.03;5072275;28;20043;-63
2021/07/17 04:18:51;;;;;;;27.73;8.60;;;;;;;15.08;86.35;102775.59;5071961;28;20107;-63
2021/07/17 04:21:16;;;;;;;30.63;8.50;;;;;;;15.12;86.49;102771.03;5069080;28;20076;-64
2021/07/17 04:23:42;;;;;;;35.55;9.10;;;;;;;15.17;86.30;102771.75;5072475;28;20111;-63
2021/07/17 04:26:08;;;;;;;24.98;8.68;;;;;;;15.20;86.04;102768.97;5071942;28;20025;-64
2021/07/17 04:28:34;;;;;;;37.20;9.48;;;;;;;15.28;86.24;102776.75;5072234;28;20033;-64
2021/07/17 04:31:00;;;;;;;30.77;8.10;;;;;;;15.38;86.07;102774.63;5050600;28;20052;-62
2021/07/17 04:33:25;;;;;;;35.00;8.93;;;;;;;15.43;85.97;102770.00;5071902;28;20472;-64
2021/07/17 04:35:51;;;;;;;29.95;8.70;;;;;;;15.44;86.07;102776.22;5072298;28;20048;-63
2021/07/17 04:38:16;;;;;;;27.30;8.18;;;;;;;15.47;86.05;102778.78;5072017;28;20492;-64
2021/07/17 04:40:41;;;;;;;32.13;8.73;;;;;;;15.56;85.96;102778.44;5070248;28;20457;-62
2021/07/17 04:43:07;;;;;;;35.08;9.25;;;;;;;15.62;85.54;102785.41;5052441;28;20035;-63
2021/07/17 04:45:33;;;;;;;28.00;8.77;;;;;;;15.64;85.69;102789.75;5051983;28;20059;-64
2021/07/17 04:47:58;;;;;;;28.08;8.73;;;;;;;15.71;85.91;102783.25;5051662;28;20025;-64
2021/07/17 04:50:24;;;;;;;27.48;8.25;;;;;;;15.78;85.89;102783.03;5051853;28;20078;-64
2021/07/17 04:52:49;;;;;;;34.08;8.85;;;;;;;15.83;85.41;102795.34;5065334;28;20050;-62
2021/07/17 04:55:16;;;;;;;31.08;8.60;;;;;;;15.91;84.92;102796.84;5062744;28;20055;-63
2021/07/17 04:57:41;;;;;;;26.63;7.78;;;;;;;15.97;84.93;102783.28;5072028;28;20425;-64
2021/07/17 05:00:07;;;;;;;33.42;8.32;;;;;;;16.03;84.87;102789.25;5052877;28;20127;-60
2021/07/17 05:02:32;;;;;;;28.85;8.07;;;;;;;16.05;85.04;102787.41;5061318;28;20111;-61
2021/07/17 05:04:58;;;;;;;33.50;7.72;;;;;;;16.09;85.00;102796.19;5065674;28;20033;-63
2021/07/17 05:07:23;;;;;;;28.83;7.68;;;;;;;16.14;84.38;102782.66;5071435;28;20044;-62
2021/07/17 05:09:48;;;;;;;29.48;8.10;;;;;;;16.17;84.61;102793.25;5070401;28;20021;-62
2021/07/17 05:12:13;;;;;;;24.98;7.70;;;;;;;16.20;84.21;102791.31;5063311;28;20041;-63
2021/07/17 05:14:39;;;;;;;19.95;7.60;;;;;;;16.26;84.76;102789.34;5070706;28;20067;-62
2021/07/17 05:17:04;;;;;;;26.73;7.82;;;;;;;16.30;83.98;102791.84;5075125;28;20035;-62
2021/07/17 05:19:30;;;;;;;24.92;7.50;;;;;;;16.38;84.22;102780.84;5074493;28;20021;-62
2021/07/17 05:21:55;;;;;;;26.17;7.40;;;;;;;16.42;84.05;102786.94;5069390;28;20029;-63
2021/07/17 05:24:20;;;;;;;26.27;7.57;;;;;;;16.46;83.69;102784.09;5059049;28;20029;-64
2021/07/17 05:26:46;;;;;;;24.05;7.13;;;;;;;16.49;83.39;102783.97;5054959;28;20036;-65
2021/07/17 05:29:11;;;;;;;22.15;6.38;;;;;;;16.55;82.63;102789.09;5069929;28;20400;-63
2021/07/17 05:31:36;;;;;;;28.80;6.53;;;;;;;16.57;83.26;102794.38;5068818;28;20469;-63
2021/07/17 05:34:02;;;;;;;28.40;6.78;;;;;;;16.63;82.42;102791.47;5066971;28;20116;-63
2021/07/17 05:36:27;;;;;;;27.45;6.78;;;;;;;16.62;82.49;102791.53;5074681;28;20065;-62
2021/07/17 05:38:52;;;;;;;22.48;6.40;;;;;;;16.66;82.54;102790.47;5067332;28;20499;-64
2021/07/17 05:41:18;;;;;;;23.63;6.07;;;;;;;16.69;82.48;102793.91;5062475;28;20122;-64
2021/07/17 05:43:43;;;;;;;19.35;6.75;;;;;;;16.75;82.14;102792.78;5062782;28;20095;-64
2021/07/17 05:46:09;;;;;;;22.60;6.70;;;;;;;16.81;81.89;102803.22;5068701;28;20021;-61
2021/07/17 05:48:34;;;;;;;23.80;5.55;;;;;;;16.95;81.66;102801.84;5058265;28;20095;-62
2021/07/17 05:51:00;;;;;;;20.70;6.03;;;;;;;16.98;81.33;102799.03;5066554;28;20024;-62
2021/07/17 05:53:25;;;;;;;15.93;5.35;;;;;;;17.10;80.62;102800.38;5070372;28;20519;-63
2021/07/17 05:55:50;;;;;;;21.08;5.93;;;;;;;17.13;80.61;102802.91;5071181;28;20034;-64
2021/07/17 05:58:16;;;;;;;18.13;4.97;;;;;;;17.20;80.61;102791.88;5073581;28;20562;-63
2021/07/17 06:00:42;;;;;;;15.90;5.00;;;;;;;17.26;80.14;102795.22;5073914;28;20028;-63
2021/07/17 06:03:09;;;;;;;17.98;5.43;;;;;;;17.30;79.38;102802.19;5065912;28;20025;-64
2021/07/17 06:05:34;;;;;;;12.73;5.05;;;;;;;17.30;79.29;102796.84;5070904;28;20028;-64
2021/07/17 06:08:00;;;;;;;15.95;4.70;;;;;;;17.41;79.01;102799.06;5066914;28;20033;-64
2021/07/17 06:10:25;;;;;;;14.70;4.68;;;;;;;17.41;78.69;102799.06;5072490;28;20028;-63
2021/07/17 06:12:51;;;;;;;12.80;4.53;;;;;;;17.49;78.36;102804.97;5073187;28;20096;-63
2021/07/17 06:15:16;;;;;;;21.45;5.18;;;;;;;17.45;78.47;102809.56;5070079;28;20043;-62
2021/07/17 06:17:42;;;;;;;15.32;3.97;;;;;;;17.49;78.39;102815.69;5072630;28;20381;-63
2021/07/17 06:20:07;;;;;;;16.17;4.63;;;;;;;17.49;78.27;102816.56;5073048;28;20036;-63
2021/07/17 06:22:33;;;;;;;13.13;5.10;;;;;;;17.56;78.15;102811.81;5064494;28;20088;-62
2021/07/17 06:24:58;;;;;;;15.25;4.45;;;;;;;17.63;78.02;102815.09;5071834;28;20023;-63
2021/07/17 06:27:24;;;;;;;15.20;4.55;;;;;;;17.67;77.46;102812.22;5071846;28;20024;-65
2021/07/17 06:29:49;;;;;;;15.88;4.30;;;;;;;17.72;77.67;102822.72;5073777;28;20100;-63
2021/07/17 06:32:18;;;;;;;20.05;4.05;;;;;;;17.79;77.22;102824.22;5072747;28;20541;-64
2021/07/17 06:34:44;;;;;;;11.90;4.22;;;;;;;17.86;76.82;102824.81;5064797;28;20431;-62
2021/07/17 06:37:09;;;;;;;11.38;4.10;;;;;;;17.84;76.53;102826.69;5067760;28;20020;-63
2021/07/17 06:39:34;;;;;;;14.82;4.30;;;;;;;17.89;76.43;102826.47;5056579;28;20051;-64
2021/07/17 06:41:59;;;;;;;12.15;4.25;;;;;;;18.01;76.12;102828.66;5073086;28;20029;-64
2021/07/17 06:44:25;;;;;;;16.98;3.95;;;;;;;18.07;75.91;102825.69;5060545;28;20378;-63
2021/07/17 06:46:50;;;;;;;17.95;4.47;;;;;;;18.13;75.42;102832.59;5073064;28;20464;-63
2021/07/17 06:49:15;;;;;;;11.75;4.00;;;;;;;18.23;75.74;102841.09;5057877;28;20136;-63
2021/07/17 06:51:41;;;;;;;13.10;3.85;;;;;;;18.34;75.15;102844.16;5053257;28;20021;-65
2021/07/17 06:54:06;;;;;;;15.18;3.80;;;;;;;18.48;74.03;102844.38;5066993;28;20034;-64
2021/07/17 06:56:31;;;;;;;13.80;4.10;;;;;;;18.61;73.67;102838.44;5071708;28;20141;-63
2021/07/17 06:58:57;;;;;;;11.70;3.78;;;;;;;18.76;73.69;102839.50;5071642;28;20028;-64
2021/07/17 07:01:23;;;;;;;12.65;3.83;;;;;;;18.82;73.25;102841.91;5072500;28;20090;-64
2021/07/17 07:03:48;;;;;;;9.65;3.50;;;;;;;18.87;72.63;102847.94;5069067;28;20458;-62
2021/07/17 07:06:14;;;;;;;11.02;3.75;;;;;;;18.98;72.05;102839.41;5065928;28;20059;-64
2021/07/17 07:08:39;;;;;;;11.15;3.38;;;;;;;19.04;71.48;102849.84;5072221;28;20082;-64
2021/07/17 07:11:05;;;;;;;12.15;3.60;;;;;;;19.09;71.56;102846.91;5073690;28;20025;-64
2021/07/17 07:13:30;;;;;;;11.55;3.67;;;;;;;19.17;70.92;102842.06;5056218;28;20384;-64
2021/07/17 07:15:55;;;;;;;9.25;3.20;;;;;;;19.27;70.79;102848.72;5067747;28;20107;-62
2021/07/17 07:18:21;;;;;;;11.82;3.60;;;;;;;19.31;69.69;102849.44;5064145;28;20380;-63
2021/07/17 07:20:47;;;;;;;10.75;3.40;;;;;;;19.38;70.07;102839.25;5053182;28;20443;-64
2021/07/17 07:23:13;;;;;;;10.55;3.03;;;;;;;19.51;70.45;102852.91;5052686;28;20413;-65
2021/07/17 07:25:39;;;;;;;9.82;3.45;;;;;;;19.55;70.57;102855.34;5054067;28;20029;-65
2021/07/17 07:28:04;;;;;;;9.00;3.00;;;;;;;19.64;70.11;102854.00;5059426;28;20033;-65
2021/07/17 07:30:30;;;;;;;11.43;3.60;;;;;;;19.75;69.58;102857.03;5071049;28;20378;-65
2021/07/17 07:32:55;;;;;;;9.35;3.40;;;;;;;19.86;68.75;102856.50;5072237;28;20032;-65
2021/07/17 07:35:23;;;;;;;12.07;3.10;;;;;;;19.88;68.59;102864.50;5065902;28;20055;-63
2021/07/17 07:37:50;;;;;;;9.85;3.22;;;;;;;19.99;67.72;102872.88;5062240;28;20025;-63
2021/07/17 07:40:16;;;;;;;10.05;3.08;;;;;;;20.04;68.43;102873.50;5053215;28;20031;-64
2021/07/17 07:42:42;;;;;;;9.38;2.90;;;;;;;20.00;67.38;102862.97;5052765;28;20029;-64
2021/07/17 07:45:08;;;;;;;8.13;2.88;;;;;;;20.13;66.63;102873.00;5070990;28;20103;-64
2021/07/17 07:47:33;;;;;;;9.18;3.67;;;;;;;20.19;66.96;102868.25;5059396;28;20101;-65
2021/07/17 07:49:59;;;;;;;11.95;2.83;;;;;;;20.25;67.24;102876.00;5042855;28;20503;-65
2021/07/17 07:52:24;;;;;;;6.80;2.70;;;;;;;20.37;66.51;102874.44;5071124;28;20027;-64
2021/07/17 07:54:51;;;;;;;9.30;3.20;;;;;;;20.41;65.43;102862.56;5053373;28;20138;-63
2021/07/17 07:57:17;;;;;;;10.57;3.35;;;;;;;20.43;66.36;102857.97;5068725;28;20082;-64
2021/07/17 07:59:43;;;;;;;10.75;3.05;;;;;;;20.51;65.77;102857.56;5071451;28;20093;-65
2021/07/17 08:02:08;;;;;;;8.75;3.28;;;;;;;20.59;65.84;102849.94;5068904;28;20476;-63
2021/07/17 08:04:34;;;;;;;10.07;3.30;;;;;;;20.75;65.22;102858.91;5057469;28;20143;-65
2021/07/17 08:06:59;;;;;;;8.57;2.53;;;;;;;20.78;64.83;102853.38;5072392;28;20028;-62
2021/07/17 08:09:25;;;;;;;7.55;2.60;;;;;;;20.83;64.63;102853.13;5064833;28;20040;-65
2021/07/17 08:11:50;;;;;;;8.85;3.03;;;;;;;20.94;64.26;102858.72;5066383;28;20100;-64
2021/07/17 08:14:15;;;;;;;6.28;2.75;;;;;;;21.05;62.27;102849.16;5063792;28;20120;-65
2021/07/17 08:16:41;;;;;;;10.95;2.80;;;;;;;21.16;61.75;102848.56;5061349;28;20503;-65
2021/07/17 08:19:06;;;;;;;9.00;2.75;;;;;;;21.28;60.75;102850.56;5055023;28;20083;-64
2021/07/17 08:21:32;;;;;;;5.80;2.53;;;;;;;21.33;60.87;102864.63;5055381;28;20108;-65
2021/07/17 08:23:57;;;;;;;6.60;2.40;;;;;;;21.40;59.78;102857.03;5063202;28;20032;-63
2021/07/17 08:26:22;;;;;;;6.03;2.38;;;;;;;21.50;60.44;102852.84;5067508;28;20106;-64
2021/07/17 08:28:48;;;;;;;6.75;2.53;;;;;;;21.45;59.15;102857.63;5059683;28;20110;-62
2021/07/17 08:31:13;;;;;;;7.25;2.30;;;;;;;21.52;59.00;102861.72;5067608;28;20037;-62
2021/07/17 08:33:39;;;;;;;6.55;2.85;;;;;;;21.63;58.47;102852.16;5060998;28;20020;-61
2021/07/17 08:36:04;;;;;;;8.18;2.70;;;;;;;21.67;58.70;102859.94;5060936;28;20379;-61
2021/07/17 08:38:29;;;;;;;6.13;2.58;;;;;;;21.72;57.21;102862.38;5063787;28;20075;-63
2021/07/17 08:40:59;;;;;;;4.45;2.10;;;;;;;21.98;56.44;102862.59;5064901;28;20170;-64
2021/07/17 08:43:25;;;;;;;6.80;2.55;;;;;;;22.02;56.94;102872.25;5074024;28;20027;-65
2021/07/17 08:45:51;;;;;;;8.88;2.63;;;;;;;22.10;57.81;102857.31;5060183;28;20058;-63
2021/07/17 08:48:20;;;;;;;8.20;2.80;;;;;;;22.86;54.68;102871.47;5070573;28;20036;-63
2021/07/17 08:50:46;;;;;;;9.95;2.25;;;;;;;24.36;51.54;102868.59;5069906;28;20032;-65
2021/07/17 08:53:12;;;;;;;6.70;2.55;;;;;;;25.88;46.10;102847.34;5075621;28;20433;-63
2021/07/17 08:55:37;;;;;;;5.18;2.47;;;;;;;26.25;45.79;102852.59;5073182;28;20043;-65
2021/07/17 08:58:03;;;;;;;6.45;2.22;;;;;;;27.25;42.17;102856.25;5075936;28;20063;-65
2021/07/17 09:00:34;;;;;;;6.78;2.13;;;;;;;27.36;41.68;102860.81;5069079;28;20115;-64
2021/07/17 09:03:00;;;;;;;;;;;;;;;27.38;41.48;102856.97;5069913;28;20112;-64
2021/07/17 09:05:28;;;;;;;6.40;2.53;;;;;;;27.25;42.17;102856.25;5057866;28;19974;-65
2021/07/17 09:07:55;;;;;;;7.65;2.40;;;;;;;27.15;41.19;102856.19;5055368;28;20029;-64
2021/07/17 09:10:30;;;;;;;5.00;2.33;;;;;;;27.33;41.23;102847.44;5061667;28;20062;-63
2021/07/17 09:13:29;;;;;;;6.80;2.55;;;;;;;27.41;41.76;102854.00;5075013;28;20376;-64
2021/07/17 09:16:01;;;;;;;5.28;2.30;;;;;;;27.84;41.38;102859.44;5032674;28;20055;-63
2021/07/17 09:18:49;;;;;;;4.75;2.22;;;;;;;27.78;39.56;102850.81;5033388;28;20057;-63
2021/07/17 09:21:27;;;;;;;3.53;1.85;;;;;;;27.42;40.37;102857.59;5032859;28;20152;-64
2021/07/17 09:24:05;;;;;;;6.60;2.20;;;;;;;27.98;39.15;102850.94;5032797;28;20030;-64
2021/07/17 09:26:39;;;;;;;5.20;2.08;;;;;;;28.29;38.21;102856.41;5033277;28;20042;-64
2021/07/17 09:29:11;;;;;;;5.32;2.30;;;;;;;28.50;39.11;102853.59;5016718;28;20493;-63
2021/07/17 09:31:48;;;;;;;5.35;2.40;;;;;;;28.69;39.14;102854.72;5032799;28;20202;-63
2021/07/17 09:34:15;;;;;;;5.13;2.17;;;;;;;28.36;37.77;102857.56;5033260;28;20029;-62
2021/07/17 09:36:54;;;;;;;5.63;2.08;;;;;;;28.83;39.77;102846.13;5033226;28;20025;-63
2021/07/17 09:39:21;;;;;;;5.38;2.20;;;;;;;28.89;38.66;102853.75;5032027;28;20041;-63
2021/07/17 09:42:00;;;;;;;5.93;2.20;;;;;;;28.94;38.05;102846.00;5032742;28;20025;-65
2021/07/17 09:44:30;;;;;;;5.00;2.05;;;;;;;28.93;37.52;102840.69;5016321;28;20033;-65
2021/07/17 09:46:55;;;;;;;6.32;2.22;;;;;;;28.04;40.41;102847.69;5015269;28;20492;-65
2021/07/17 09:49:23;;;;;;;9.48;2.65;;;;;;;28.45;38.46;102840.41;5032609;28;20057;-64
2021/07/17 09:52:05;;;;;;;5.43;1.85;;;;;;;29.16;36.00;102846.72;5046138;28;20064;-62
2021/07/17 09:54:30;;;;;;;6.88;2.25;;;;;;;29.22;36.82;102851.63;5074163;28;20388;-63
2021/07/17 09:57:00;;;;;;;5.63;2.13;;;;;;;29.07;36.75;102843.00;5074676;28;20032;-62
2021/07/17 09:59:25;;;;;;;5.28;2.08;;;;;;;29.34;36.43;102837.84;5074389;28;20032;-65
2021/07/17 10:01:51;;;;;;;6.13;2.40;;;;;;;29.32;37.28;102840.72;5074139;28;20028;-64
2021/07/17 10:04:16;;;;;;;4.35;2.00;;;;;;;29.25;36.13;102832.22;5074647;28;20024;-65
2021/07/17 10:07:01;;;;;;;4.70;2.10;;;;;;;29.64;36.46;102833.22;5074806;28;20123;-65
2021/07/17 10:09:32;;;;;;;6.65;2.38;;;;;;;29.97;35.35;102841.91;5074008;28;20024;-62
2021/07/17 10:12:06;;;;;;;5.85;2.55;;;;;;;29.81;35.51;102842.50;5074353;28;20031;-64
2021/07/17 10:14:40;;;;;;;7.03;2.42;;;;;;;28.78;36.59;102846.53;5072177;28;20068;-63
2021/07/17 10:17:12;;;;;;;6.32;2.30;;;;;;;28.96;37.39;102843.13;5073978;28;20542;-65
2021/07/17 10:19:38;;;;;;;4.97;2.17;;;;;;;29.29;36.00;102842.88;5073863;28;20055;-64
2021/07/17 10:22:05;;;;;;;4.78;2.15;;;;;;;29.46;34.05;102844.00;5060941;28;20021;-62
2021/07/17 10:24:31;;;;;;;4.75;1.80;;;;;;;29.26;34.58;102847.59;5053836;28;20487;-62
2021/07/17 10:26:57;;;;;;;4.40;1.92;;;;;;;29.63;34.12;102853.31;5059090;28;20028;-63
2021/07/17 10:29:24;;;;;;;4.93;2.10;;;;;;;30.18;34.18;102838.94;5074478;28;20020;-64
2021/07/17 10:31:51;;;;;;;7.68;2.20;;;;;;;30.00;34.17;102839.75;5071477;28;20020;-62
2021/07/17 10:34:18;;;;;;;3.60;1.80;;;;;;;30.03;34.12;102842.19;5056182;28;20107;-64
2021/07/17 10:37:09;;;;;;;3.78;1.90;;;;;;;30.21;32.70;102855.06;5074146;28;20036;-62
2021/07/17 10:39:48;;;;;;;5.25;1.83;;;;;;;29.35;33.96;102839.56;5073962;28;20040;-65
2021/07/17 10:42:20;;;;;;;4.20;1.67;;;;;;;30.10;33.31;102836.13;5073819;28;20024;-63
2021/07/17 10:44:56;;;;;;;3.38;1.67;;;;;;;29.80;33.00;102840.78;5073563;28;20646;-64
2021/07/17 10:47:23;;;;;;;4.50;1.70;;;;;;;28.80;34.37;102843.69;5074039;28;20025;-63
2021/07/17 10:49:51;;;;;;;4.78;1.67;;;;;;;28.84;35.03;102836.06;5073883;28;20028;-62
2021/07/17 10:52:43;;;;;;;5.28;1.88;;;;;;;28.82;34.97;102835.34;5073025;28;20025;-62
2021/07/17 10:55:27;;;;;;;2.78;1.40;;;;;;;28.71;34.41;102845.38;5073021;28;20024;-64
2021/07/17 10:57:53;;;;;;;3.83;1.50;;;;;;;29.86;33.64;102840.19;5066497;28;20066;-63
2021/07/17 11:00:47;;;;;;;4.70;1.65;;;;;;;30.01;33.15;102833.25;5054206;28;20043;-62
2021/07/17 11:03:17;;;;;;;3.70;1.50;;;;;;;29.88;33.37;102838.22;5053464;28;20110;-64
2021/07/17 11:05:43;;;;;;;4.03;1.60;;;;;;;30.71;33.12;102826.47;5053856;28;20028;-65
2021/07/17 11:08:28;;;;;;;3.45;1.60;;;;;;;30.07;32.90;102834.53;5053176;28;20029;-64
2021/07/17 11:10:53;;;;;;;2.90;1.40;;;;;;;30.37;33.89;102832.53;5053656;28;20110;-63
2021/07/17 11:13:32;;;;;;;4.53;1.60;;;;;;;31.15;32.32;102829.34;5073199;28;20067;-63
2021/07/17 11:15:58;;;;;;;2.47;1.80;;;;;;;30.78;31.51;102832.16;5072196;28;20125;-64
2021/07/17 11:18:25;;;;;;;4.03;1.83;;;;;;;30.84;33.22;102826.94;5073023;28;20095;-64